sensor_id;sensor_type;location;lat;lon;timestamp;P1;durP1;ratioP1;P2;durP2;ratioP2
6388;SDS011;3227;42.654;23.360;2024-03-02T00:00:40;19.47;;;10.60;;
6388;SDS011;3227;42.654;23.360;2024-03-02T00:03:07;20.73;;;10.93;;
6388;SDS011;3227;42.654;23.360;2024-03-02T00:05:36;23.00;;;12.03;;
6388;SDS011;3227;42.654;23.360;2024-03-02T00:08:04;20.07;;;11.10;;
6388;SDS011;3227;42.654;23.360;2024-03-02T00:10:33;22.47;;;11.10;;
6388;SDS011;3227;42.654;23.360;2024-03-02T00:13:05;22.07;;;12.23;;
6388;SDS011;3227;42.654;23.360;2024-03-02T00:15:39;21.10;;;11.07;;
6388;SDS011;3227;42.654;23.360;2024-03-02T00:18:10;19.90;;;9.93;;
6388;SDS011;3227;42.654;23.360;2024-03-02T00:20:39;20.93;;;10.10;;
6388;SDS011;3227;42.654;23.360;2024-03-02T00:23:13;18.20;;;10.17;;
6388;SDS011;3227;42.654;23.360;2024-03-02T00:25:41;22.03;;;10.47;;
6388;SDS011;3227;42.654;23.360;2024-03-02T00:28:19;18.50;;;10.33;;
6388;SDS011;3227;42.654;23.360;2024-03-02T00:33:39;23.40;;;10.37;;
6388;SDS011;3227;42.654;23.360;2024-03-02T00:36:10;21.57;;;10.47;;
6388;SDS011;3227;42.654;23.360;2024-03-02T00:38:42;19.73;;;9.97;;
6388;SDS011;3227;42.654;23.360;2024-03-02T00:41:15;20.50;;;11.33;;
6388;SDS011;3227;42.654;23.360;2024-03-02T00:43:50;19.60;;;10.23;;
6388;SDS011;3227;42.654;23.360;2024-03-02T00:46:29;20.07;;;11.17;;
6388;SDS011;3227;42.654;23.360;2024-03-02T00:49:00;19.10;;;10.10;;
6388;SDS011;3227;42.654;23.360;2024-03-02T00:51:29;23.57;;;11.60;;
6388;SDS011;3227;42.654;23.360;2024-03-02T00:53:58;22.47;;;11.93;;
6388;SDS011;3227;42.654;23.360;2024-03-02T00:56:26;19.33;;;10.10;;
6388;SDS011;3227;42.654;23.360;2024-03-02T00:58:53;22.10;;;11.23;;
6388;SDS011;3227;42.654;23.360;2024-03-02T01:01:20;17.83;;;10.10;;
6388;SDS011;3227;42.654;23.360;2024-03-02T01:03:46;19.17;;;10.40;;
6388;SDS011;3227;42.654;23.360;2024-03-02T01:06:14;15.90;;;8.80;;
6388;SDS011;3227;42.654;23.360;2024-03-02T01:08:42;18.33;;;9.37;;
6388;SDS011;3227;42.654;23.360;2024-03-02T01:11:09;19.00;;;9.93;;
6388;SDS011;3227;42.654;23.360;2024-03-02T01:13:36;17.47;;;8.87;;
6388;SDS011;3227;42.654;23.360;2024-03-02T01:16:03;19.60;;;9.97;;
6388;SDS011;3227;42.654;23.360;2024-03-02T01:18:30;20.57;;;9.60;;
6388;SDS011;3227;42.654;23.360;2024-03-02T01:20:57;18.57;;;9.40;;
6388;SDS011;3227;42.654;23.360;2024-03-02T01:23:23;16.80;;;9.43;;
6388;SDS011;3227;42.654;23.360;2024-03-02T01:25:52;19.93;;;9.83;;
6388;SDS011;3227;42.654;23.360;2024-03-02T01:28:19;17.00;;;8.87;;
6388;SDS011;3227;42.654;23.360;2024-03-02T01:30:46;21.80;;;11.20;;
6388;SDS011;3227;42.654;23.360;2024-03-02T01:33:14;18.13;;;9.40;;
6388;SDS011;3227;42.654;23.360;2024-03-02T01:35:41;17.17;;;9.23;;
6388;SDS011;3227;42.654;23.360;2024-03-02T01:38:07;18.77;;;9.77;;
6388;SDS011;3227;42.654;23.360;2024-03-02T01:40:34;19.07;;;9.90;;
6388;SDS011;3227;42.654;23.360;2024-03-02T01:43:03;17.60;;;10.07;;
6388;SDS011;3227;42.654;23.360;2024-03-02T01:45:30;21.07;;;9.97;;
6388;SDS011;3227;42.654;23.360;2024-03-02T01:47:57;18.10;;;9.63;;
6388;SDS011;3227;42.654;23.360;2024-03-02T01:50:24;17.27;;;9.37;;
6388;SDS011;3227;42.654;23.360;2024-03-02T01:52:51;20.57;;;10.10;;
6388;SDS011;3227;42.654;23.360;2024-03-02T01:55:18;16.10;;;8.47;;
6388;SDS011;3227;42.654;23.360;2024-03-02T01:57:45;19.93;;;10.07;;
6388;SDS011;3227;42.654;23.360;2024-03-02T02:00:15;17.07;;;9.20;;
6388;SDS011;3227;42.654;23.360;2024-03-02T02:02:42;19.97;;;9.07;;
6388;SDS011;3227;42.654;23.360;2024-03-02T02:05:09;19.33;;;9.67;;
6388;SDS011;3227;42.654;23.360;2024-03-02T02:07:36;20.97;;;10.07;;
6388;SDS011;3227;42.654;23.360;2024-03-02T02:10:03;18.47;;;10.03;;
6388;SDS011;3227;42.654;23.360;2024-03-02T02:12:30;24.10;;;11.77;;
6388;SDS011;3227;42.654;23.360;2024-03-02T02:14:57;20.37;;;11.20;;
6388;SDS011;3227;42.654;23.360;2024-03-02T02:17:25;21.87;;;10.43;;
6388;SDS011;3227;42.654;23.360;2024-03-02T02:19:52;22.93;;;11.50;;
6388;SDS011;3227;42.654;23.360;2024-03-02T02:22:20;22.90;;;12.33;;
6388;SDS011;3227;42.654;23.360;2024-03-02T02:24:51;20.93;;;11.63;;
6388;SDS011;3227;42.654;23.360;2024-03-02T02:27:18;21.00;;;10.93;;
6388;SDS011;3227;42.654;23.360;2024-03-02T02:29:45;22.57;;;11.10;;
6388;SDS011;3227;42.654;23.360;2024-03-02T02:32:11;22.97;;;12.23;;
6388;SDS011;3227;42.654;23.360;2024-03-02T02:34:38;28.10;;;12.90;;
6388;SDS011;3227;42.654;23.360;2024-03-02T02:37:05;25.87;;;13.40;;
6388;SDS011;3227;42.654;23.360;2024-03-02T02:39:33;22.80;;;12.90;;
6388;SDS011;3227;42.654;23.360;2024-03-02T02:42:00;22.33;;;12.10;;
6388;SDS011;3227;42.654;23.360;2024-03-02T02:44:28;23.57;;;12.33;;
6388;SDS011;3227;42.654;23.360;2024-03-02T02:46:54;22.90;;;12.30;;
6388;SDS011;3227;42.654;23.360;2024-03-02T02:49:21;27.67;;;13.17;;
6388;SDS011;3227;42.654;23.360;2024-03-02T02:51:48;22.40;;;11.63;;
6388;SDS011;3227;42.654;23.360;2024-03-02T02:54:14;21.07;;;11.93;;
6388;SDS011;3227;42.654;23.360;2024-03-02T02:56:42;22.00;;;11.40;;
6388;SDS011;3227;42.654;23.360;2024-03-02T02:59:09;24.50;;;12.30;;
6388;SDS011;3227;42.654;23.360;2024-03-02T03:01:36;22.37;;;12.13;;
6388;SDS011;3227;42.654;23.360;2024-03-02T03:04:03;27.20;;;13.00;;
6388;SDS011;3227;42.654;23.360;2024-03-02T03:06:30;23.20;;;12.50;;
6388;SDS011;3227;42.654;23.360;2024-03-02T03:08:56;24.30;;;11.20;;
6388;SDS011;3227;42.654;23.360;2024-03-02T03:11:23;22.30;;;11.13;;
6388;SDS011;3227;42.654;23.360;2024-03-02T03:13:52;19.70;;;11.57;;
6388;SDS011;3227;42.654;23.360;2024-03-02T03:16:20;20.87;;;11.30;;
6388;SDS011;3227;42.654;23.360;2024-03-02T03:18:47;26.10;;;12.67;;
6388;SDS011;3227;42.654;23.360;2024-03-02T03:21:16;22.13;;;11.83;;
6388;SDS011;3227;42.654;23.360;2024-03-02T03:23:43;26.50;;;12.10;;
6388;SDS011;3227;42.654;23.360;2024-03-02T03:26:10;24.33;;;12.77;;
6388;SDS011;3227;42.654;23.360;2024-03-02T03:28:36;21.03;;;11.50;;
6388;SDS011;3227;42.654;23.360;2024-03-02T03:31:05;23.57;;;12.37;;
6388;SDS011;3227;42.654;23.360;2024-03-02T03:33:32;22.37;;;12.17;;
6388;SDS011;3227;42.654;23.360;2024-03-02T03:35:59;25.40;;;13.07;;
6388;SDS011;3227;42.654;23.360;2024-03-02T03:38:26;25.17;;;12.87;;
6388;SDS011;3227;42.654;23.360;2024-03-02T03:40:52;26.33;;;13.23;;
6388;SDS011;3227;42.654;23.360;2024-03-02T03:43:20;25.00;;;13.47;;
6388;SDS011;3227;42.654;23.360;2024-03-02T03:45:46;25.13;;;13.37;;
6388;SDS011;3227;42.654;23.360;2024-03-02T03:48:14;25.03;;;12.40;;
6388;SDS011;3227;42.654;23.360;2024-03-02T03:50:41;27.63;;;13.13;;
6388;SDS011;3227;42.654;23.360;2024-03-02T03:53:08;24.43;;;12.57;;
6388;SDS011;3227;42.654;23.360;2024-03-02T03:55:35;27.53;;;13.17;;
6388;SDS011;3227;42.654;23.360;2024-03-02T03:58:01;24.40;;;12.47;;
6388;SDS011;3227;42.654;23.360;2024-03-02T04:00:28;27.37;;;13.07;;
6388;SDS011;3227;42.654;23.360;2024-03-02T04:02:55;24.37;;;12.77;;
6388;SDS011;3227;42.654;23.360;2024-03-02T04:05:23;22.23;;;11.00;;
6388;SDS011;3227;42.654;23.360;2024-03-02T04:07:49;23.43;;;11.70;;
6388;SDS011;3227;42.654;23.360;2024-03-02T04:10:16;26.53;;;12.47;;
6388;SDS011;3227;42.654;23.360;2024-03-02T04:12:43;24.23;;;11.87;;
6388;SDS011;3227;42.654;23.360;2024-03-02T04:15:09;22.50;;;12.33;;
6388;SDS011;3227;42.654;23.360;2024-03-02T04:17:36;23.60;;;11.57;;
6388;SDS011;3227;42.654;23.360;2024-03-02T04:20:04;18.70;;;10.60;;
6388;SDS011;3227;42.654;23.360;2024-03-02T04:22:34;26.50;;;11.47;;
6388;SDS011;3227;42.654;23.360;2024-03-02T04:25:01;27.70;;;12.30;;
6388;SDS011;3227;42.654;23.360;2024-03-02T04:27:29;22.00;;;10.83;;
6388;SDS011;3227;42.654;23.360;2024-03-02T04:29:56;27.20;;;11.87;;
6388;SDS011;3227;42.654;23.360;2024-03-02T04:32:23;22.97;;;11.80;;
6388;SDS011;3227;42.654;23.360;2024-03-02T04:34:50;24.40;;;10.93;;
6388;SDS011;3227;42.654;23.360;2024-03-02T04:37:17;22.17;;;11.40;;
6388;SDS011;3227;42.654;23.360;2024-03-02T04:39:45;21.43;;;11.60;;
6388;SDS011;3227;42.654;23.360;2024-03-02T04:42:12;20.90;;;11.07;;
6388;SDS011;3227;42.654;23.360;2024-03-02T04:44:38;20.40;;;10.63;;
6388;SDS011;3227;42.654;23.360;2024-03-02T04:47:05;25.37;;;11.50;;
6388;SDS011;3227;42.654;23.360;2024-03-02T04:49:32;24.10;;;11.43;;
6388;SDS011;3227;42.654;23.360;2024-03-02T04:51:58;24.00;;;10.73;;
6388;SDS011;3227;42.654;23.360;2024-03-02T04:54:26;22.47;;;11.30;;
6388;SDS011;3227;42.654;23.360;2024-03-02T04:56:54;22.77;;;11.57;;
6388;SDS011;3227;42.654;23.360;2024-03-02T04:59:21;22.77;;;11.17;;
6388;SDS011;3227;42.654;23.360;2024-03-02T05:01:48;22.13;;;12.23;;
6388;SDS011;3227;42.654;23.360;2024-03-02T05:04:15;26.83;;;12.90;;
6388;SDS011;3227;42.654;23.360;2024-03-02T05:06:41;22.60;;;11.27;;
6388;SDS011;3227;42.654;23.360;2024-03-02T05:09:08;26.33;;;11.90;;
6388;SDS011;3227;42.654;23.360;2024-03-02T05:11:35;22.67;;;11.40;;
6388;SDS011;3227;42.654;23.360;2024-03-02T05:14:26;21.43;;;11.53;;
6388;SDS011;3227;42.654;23.360;2024-03-02T05:16:54;21.97;;;11.50;;
6388;SDS011;3227;42.654;23.360;2024-03-02T05:19:20;20.23;;;11.20;;
6388;SDS011;3227;42.654;23.360;2024-03-02T05:21:47;19.87;;;11.03;;
6388;SDS011;3227;42.654;23.360;2024-03-02T05:24:14;19.73;;;10.63;;
6388;SDS011;3227;42.654;23.360;2024-03-02T05:26:41;19.57;;;10.80;;
6388;SDS011;3227;42.654;23.360;2024-03-02T05:29:08;20.37;;;11.10;;
6388;SDS011;3227;42.654;23.360;2024-03-02T05:31:36;22.70;;;11.00;;
6388;SDS011;3227;42.654;23.360;2024-03-02T05:34:03;21.33;;;10.37;;
6388;SDS011;3227;42.654;23.360;2024-03-02T05:36:30;20.33;;;11.17;;
6388;SDS011;3227;42.654;23.360;2024-03-02T05:38:57;20.83;;;11.00;;
6388;SDS011;3227;42.654;23.360;2024-03-02T05:41:24;22.53;;;10.97;;
6388;SDS011;3227;42.654;23.360;2024-03-02T05:43:50;22.40;;;11.27;;
6388;SDS011;3227;42.654;23.360;2024-03-02T05:46:17;22.37;;;11.70;;
6388;SDS011;3227;42.654;23.360;2024-03-02T05:48:45;21.83;;;11.97;;
6388;SDS011;3227;42.654;23.360;2024-03-02T05:51:12;22.97;;;11.77;;
6388;SDS011;3227;42.654;23.360;2024-03-02T05:53:39;25.60;;;12.90;;
6388;SDS011;3227;42.654;23.360;2024-03-02T05:56:06;28.90;;;12.83;;
6388;SDS011;3227;42.654;23.360;2024-03-02T05:58:33;23.70;;;12.93;;
6388;SDS011;3227;42.654;23.360;2024-03-02T06:01:13;22.53;;;11.27;;
6388;SDS011;3227;42.654;23.360;2024-03-02T06:03:39;28.40;;;13.13;;
6388;SDS011;3227;42.654;23.360;2024-03-02T06:06:08;24.47;;;11.90;;
6388;SDS011;3227;42.654;23.360;2024-03-02T06:08:35;26.70;;;13.73;;
6388;SDS011;3227;42.654;23.360;2024-03-02T06:11:02;24.37;;;12.43;;
6388;SDS011;3227;42.654;23.360;2024-03-02T06:13:29;21.90;;;12.00;;
6388;SDS011;3227;42.654;23.360;2024-03-02T06:15:56;22.63;;;11.53;;
6388;SDS011;3227;42.654;23.360;2024-03-02T06:18:23;23.77;;;12.03;;
6388;SDS011;3227;42.654;23.360;2024-03-02T06:20:49;22.67;;;11.90;;
6388;SDS011;3227;42.654;23.360;2024-03-02T06:23:18;23.53;;;11.13;;
6388;SDS011;3227;42.654;23.360;2024-03-02T06:25:44;20.13;;;10.57;;
6388;SDS011;3227;42.654;23.360;2024-03-02T06:28:11;23.70;;;11.83;;
6388;SDS011;3227;42.654;23.360;2024-03-02T06:30:40;22.37;;;11.43;;
6388;SDS011;3227;42.654;23.360;2024-03-02T06:33:07;22.93;;;11.63;;
6388;SDS011;3227;42.654;23.360;2024-03-02T06:35:33;21.67;;;11.33;;
6388;SDS011;3227;42.654;23.360;2024-03-02T06:38:00;22.40;;;11.60;;
6388;SDS011;3227;42.654;23.360;2024-03-02T06:40:28;24.90;;;12.00;;
6388;SDS011;3227;42.654;23.360;2024-03-02T06:42:55;22.10;;;11.27;;
6388;SDS011;3227;42.654;23.360;2024-03-02T06:45:22;21.53;;;10.83;;
6388;SDS011;3227;42.654;23.360;2024-03-02T06:47:49;25.03;;;11.60;;
6388;SDS011;3227;42.654;23.360;2024-03-02T06:50:15;24.80;;;12.87;;
6388;SDS011;3227;42.654;23.360;2024-03-02T06:52:42;24.33;;;11.53;;
6388;SDS011;3227;42.654;23.360;2024-03-02T06:55:09;21.97;;;11.10;;
6388;SDS011;3227;42.654;23.360;2024-03-02T06:57:37;25.80;;;10.93;;
6388;SDS011;3227;42.654;23.360;2024-03-02T07:00:04;27.37;;;12.70;;
6388;SDS011;3227;42.654;23.360;2024-03-02T07:02:33;26.17;;;12.13;;
6388;SDS011;3227;42.654;23.360;2024-03-02T07:05:01;21.77;;;11.23;;
6388;SDS011;3227;42.654;23.360;2024-03-02T07:07:28;25.47;;;12.07;;
6388;SDS011;3227;42.654;23.360;2024-03-02T07:09:54;22.07;;;12.07;;
6388;SDS011;3227;42.654;23.360;2024-03-02T07:12:21;23.07;;;11.77;;
6388;SDS011;3227;42.654;23.360;2024-03-02T07:14:49;25.63;;;11.70;;
6388;SDS011;3227;42.654;23.360;2024-03-02T07:17:50;23.00;;;11.07;;
6388;SDS011;3227;42.654;23.360;2024-03-02T07:20:16;19.60;;;10.67;;
6388;SDS011;3227;42.654;23.360;2024-03-02T07:22:43;21.93;;;11.40;;
6388;SDS011;3227;42.654;23.360;2024-03-02T07:25:10;30.77;;;11.93;;
6388;SDS011;3227;42.654;23.360;2024-03-02T07:27:37;25.97;;;12.37;;
6388;SDS011;3227;42.654;23.360;2024-03-02T07:30:05;28.17;;;12.77;;
6388;SDS011;3227;42.654;23.360;2024-03-02T07:32:33;24.20;;;12.33;;
6388;SDS011;3227;42.654;23.360;2024-03-02T07:34:59;21.93;;;12.60;;
6388;SDS011;3227;42.654;23.360;2024-03-02T07:37:26;25.77;;;11.97;;
6388;SDS011;3227;42.654;23.360;2024-03-02T07:39:53;25.23;;;12.33;;
6388;SDS011;3227;42.654;23.360;2024-03-02T07:42:20;25.40;;;12.27;;
6388;SDS011;3227;42.654;23.360;2024-03-02T07:44:47;22.57;;;12.80;;
6388;SDS011;3227;42.654;23.360;2024-03-02T07:47:15;24.47;;;13.47;;
6388;SDS011;3227;42.654;23.360;2024-03-02T07:49:42;31.53;;;14.57;;
6388;SDS011;3227;42.654;23.360;2024-03-02T07:52:10;26.60;;;12.87;;
6388;SDS011;3227;42.654;23.360;2024-03-02T07:54:37;27.73;;;13.43;;
6388;SDS011;3227;42.654;23.360;2024-03-02T07:57:03;23.57;;;13.27;;
6388;SDS011;3227;42.654;23.360;2024-03-02T07:59:30;23.40;;;12.37;;
6388;SDS011;3227;42.654;23.360;2024-03-02T08:01:57;31.13;;;14.20;;
6388;SDS011;3227;42.654;23.360;2024-03-02T08:04:25;28.70;;;13.20;;
6388;SDS011;3227;42.654;23.360;2024-03-02T08:06:52;31.67;;;14.13;;
6388;SDS011;3227;42.654;23.360;2024-03-02T08:09:19;28.97;;;14.23;;
6388;SDS011;3227;42.654;23.360;2024-03-02T08:11:46;27.50;;;13.17;;
6388;SDS011;3227;42.654;23.360;2024-03-02T08:14:13;26.73;;;13.73;;
6388;SDS011;3227;42.654;23.360;2024-03-02T08:16:40;27.67;;;13.67;;
6388;SDS011;3227;42.654;23.360;2024-03-02T08:19:07;27.87;;;14.07;;
6388;SDS011;3227;42.654;23.360;2024-03-02T08:21:35;28.10;;;14.23;;
6388;SDS011;3227;42.654;23.360;2024-03-02T08:24:04;25.37;;;12.67;;
6388;SDS011;3227;42.654;23.360;2024-03-02T08:26:31;26.43;;;12.57;;
6388;SDS011;3227;42.654;23.360;2024-03-02T08:28:58;23.33;;;12.13;;
6388;SDS011;3227;42.654;23.360;2024-03-02T08:31:28;30.83;;;13.37;;
6388;SDS011;3227;42.654;23.360;2024-03-02T08:33:55;27.70;;;13.27;;
6388;SDS011;3227;42.654;23.360;2024-03-02T08:36:24;28.20;;;13.37;;
6388;SDS011;3227;42.654;23.360;2024-03-02T08:38:52;22.80;;;11.23;;
6388;SDS011;3227;42.654;23.360;2024-03-02T08:41:19;26.03;;;12.63;;
6388;SDS011;3227;42.654;23.360;2024-03-02T08:43:46;27.73;;;12.80;;
6388;SDS011;3227;42.654;23.360;2024-03-02T08:46:13;24.00;;;12.53;;
6388;SDS011;3227;42.654;23.360;2024-03-02T08:48:40;25.33;;;12.27;;
6388;SDS011;3227;42.654;23.360;2024-03-02T08:51:06;27.80;;;13.33;;
6388;SDS011;3227;42.654;23.360;2024-03-02T08:53:35;27.37;;;12.77;;
6388;SDS011;3227;42.654;23.360;2024-03-02T08:56:04;28.67;;;13.47;;
6388;SDS011;3227;42.654;23.360;2024-03-02T08:58:31;25.27;;;12.03;;
6388;SDS011;3227;42.654;23.360;2024-03-02T09:00:58;31.27;;;12.47;;
6388;SDS011;3227;42.654;23.360;2024-03-02T09:03:25;26.80;;;14.40;;
6388;SDS011;3227;42.654;23.360;2024-03-02T09:05:52;24.50;;;12.67;;
6388;SDS011;3227;42.654;23.360;2024-03-02T09:08:18;25.70;;;12.70;;
6388;SDS011;3227;42.654;23.360;2024-03-02T09:10:45;23.90;;;12.17;;
6388;SDS011;3227;42.654;23.360;2024-03-02T09:13:13;22.00;;;11.77;;
6388;SDS011;3227;42.654;23.360;2024-03-02T09:15:40;27.67;;;12.23;;
6388;SDS011;3227;42.654;23.360;2024-03-02T09:18:07;23.75;;;12.65;;
6388;SDS011;3227;42.654;23.360;2024-03-02T09:20:34;22.25;;;11.52;;
6388;SDS011;3227;42.654;23.360;2024-03-02T09:23:01;24.10;;;11.00;;
6388;SDS011;3227;42.654;23.360;2024-03-02T09:25:27;22.70;;;10.97;;
6388;SDS011;3227;42.654;23.360;2024-03-02T09:27:54;22.07;;;10.73;;
6388;SDS011;3227;42.654;23.360;2024-03-02T09:30:23;22.07;;;11.00;;
6388;SDS011;3227;42.654;23.360;2024-03-02T09:32:49;19.03;;;9.67;;
6388;SDS011;3227;42.654;23.360;2024-03-02T09:35:16;20.63;;;9.80;;
6388;SDS011;3227;42.654;23.360;2024-03-02T09:37:43;18.20;;;9.87;;
6388;SDS011;3227;42.654;23.360;2024-03-02T09:40:10;18.60;;;9.33;;
6388;SDS011;3227;42.654;23.360;2024-03-02T09:42:37;17.13;;;9.47;;
6388;SDS011;3227;42.654;23.360;2024-03-02T09:45:05;20.97;;;8.97;;
6388;SDS011;3227;42.654;23.360;2024-03-02T09:47:34;20.40;;;10.33;;
6388;SDS011;3227;42.654;23.360;2024-03-02T09:50:01;19.30;;;10.50;;
6388;SDS011;3227;42.654;23.360;2024-03-02T09:52:29;22.33;;;11.23;;
6388;SDS011;3227;42.654;23.360;2024-03-02T09:54:56;25.63;;;11.57;;
6388;SDS011;3227;42.654;23.360;2024-03-02T09:57:23;20.43;;;11.47;;
6388;SDS011;3227;42.654;23.360;2024-03-02T09:59:50;26.60;;;12.60;;
6388;SDS011;3227;42.654;23.360;2024-03-02T10:02:17;26.57;;;13.20;;
6388;SDS011;3227;42.654;23.360;2024-03-02T10:04:45;22.73;;;11.77;;
6388;SDS011;3227;42.654;23.360;2024-03-02T10:07:12;27.70;;;13.90;;
6388;SDS011;3227;42.654;23.360;2024-03-02T10:09:40;29.65;;;16.27;;
6388;SDS011;3227;42.654;23.360;2024-03-02T10:12:07;28.23;;;12.83;;
6388;SDS011;3227;42.654;23.360;2024-03-02T10:14:36;29.17;;;13.10;;
6388;SDS011;3227;42.654;23.360;2024-03-02T10:17:03;26.40;;;14.00;;
6388;SDS011;3227;42.654;23.360;2024-03-02T10:19:31;28.13;;;12.27;;
6388;SDS011;3227;42.654;23.360;2024-03-02T10:22:01;29.13;;;12.70;;
6388;SDS011;3227;42.654;23.360;2024-03-02T10:24:34;26.53;;;14.23;;
6388;SDS011;3227;42.654;23.360;2024-03-02T10:27:03;27.17;;;13.00;;
6388;SDS011;3227;42.654;23.360;2024-03-02T10:29:35;25.83;;;12.83;;
6388;SDS011;3227;42.654;23.360;2024-03-02T10:32:03;29.23;;;13.43;;
6388;SDS011;3227;42.654;23.360;2024-03-02T10:34:31;25.27;;;11.70;;
6388;SDS011;3227;42.654;23.360;2024-03-02T10:36:58;27.23;;;12.90;;
6388;SDS011;3227;42.654;23.360;2024-03-02T10:39:27;24.07;;;12.70;;
6388;SDS011;3227;42.654;23.360;2024-03-02T10:41:56;25.53;;;12.17;;
6388;SDS011;3227;42.654;23.360;2024-03-02T10:47:16;23.67;;;11.67;;
6388;SDS011;3227;42.654;23.360;2024-03-02T10:49:47;22.30;;;11.13;;
6388;SDS011;3227;42.654;23.360;2024-03-02T10:52:18;23.67;;;12.00;;
6388;SDS011;3227;42.654;23.360;2024-03-02T10:54:48;20.00;;;10.87;;
6388;SDS011;3227;42.654;23.360;2024-03-02T10:57:15;22.93;;;13.07;;
6388;SDS011;3227;42.654;23.360;2024-03-02T10:59:50;20.80;;;11.17;;
6388;SDS011;3227;42.654;23.360;2024-03-02T11:02:19;21.13;;;10.20;;
6388;SDS011;3227;42.654;23.360;2024-03-02T11:04:48;22.60;;;10.67;;
6388;SDS011;3227;42.654;23.360;2024-03-02T11:07:16;17.60;;;9.20;;
6388;SDS011;3227;42.654;23.360;2024-03-02T11:09:48;21.93;;;9.97;;
6388;SDS011;3227;42.654;23.360;2024-03-02T11:12:26;18.17;;;9.57;;
6388;SDS011;3227;42.654;23.360;2024-03-02T11:14:55;19.17;;;9.80;;
6388;SDS011;3227;42.654;23.360;2024-03-02T11:17:22;18.77;;;9.20;;
6388;SDS011;3227;42.654;23.360;2024-03-02T11:19:51;21.10;;;9.53;;
6388;SDS011;3227;42.654;23.360;2024-03-02T11:22:20;19.37;;;10.33;;
6388;SDS011;3227;42.654;23.360;2024-03-02T11:24:48;19.00;;;9.20;;
6388;SDS011;3227;42.654;23.360;2024-03-02T11:27:20;14.87;;;8.77;;
6388;SDS011;3227;42.654;23.360;2024-03-02T11:33:24;19.87;;;9.67;;
6388;SDS011;3227;42.654;23.360;2024-03-02T11:35:55;21.23;;;10.57;;
6388;SDS011;3227;42.654;23.360;2024-03-02T11:38:24;17.60;;;9.47;;
6388;SDS011;3227;42.654;23.360;2024-03-02T11:40:54;21.23;;;9.50;;
6388;SDS011;3227;42.654;23.360;2024-03-02T11:43:21;19.77;;;8.70;;
6388;SDS011;3227;42.654;23.360;2024-03-02T11:45:48;20.03;;;9.67;;
6388;SDS011;3227;42.654;23.360;2024-03-02T11:48:23;19.15;;;9.90;;
6388;SDS011;3227;42.654;23.360;2024-03-02T11:50:51;18.60;;;9.97;;
6388;SDS011;3227;42.654;23.360;2024-03-02T11:53:19;15.70;;;8.90;;
6388;SDS011;3227;42.654;23.360;2024-03-02T11:55:47;15.80;;;8.37;;
6388;SDS011;3227;42.654;23.360;2024-03-02T11:58:15;13.90;;;7.80;;
6388;SDS011;3227;42.654;23.360;2024-03-02T12:00:45;17.70;;;9.33;;
6388;SDS011;3227;42.654;23.360;2024-03-02T12:03:12;16.43;;;8.27;;
6388;SDS011;3227;42.654;23.360;2024-03-02T12:05:40;15.67;;;8.20;;
6388;SDS011;3227;42.654;23.360;2024-03-02T12:08:08;14.13;;;8.27;;
6388;SDS011;3227;42.654;23.360;2024-03-02T12:10:35;17.60;;;9.70;;
6388;SDS011;3227;42.654;23.360;2024-03-02T12:13:05;16.67;;;8.10;;
6388;SDS011;3227;42.654;23.360;2024-03-02T12:15:33;15.07;;;7.77;;
6388;SDS011;3227;42.654;23.360;2024-03-02T12:18:02;12.83;;;7.03;;
6388;SDS011;3227;42.654;23.360;2024-03-02T12:20:29;15.63;;;7.93;;
6388;SDS011;3227;42.654;23.360;2024-03-02T12:22:58;14.90;;;7.83;;
6388;SDS011;3227;42.654;23.360;2024-03-02T12:25:26;16.80;;;8.07;;
6388;SDS011;3227;42.654;23.360;2024-03-02T12:27:53;13.30;;;7.13;;
6388;SDS011;3227;42.654;23.360;2024-03-02T12:30:23;14.00;;;8.10;;
6388;SDS011;3227;42.654;23.360;2024-03-02T12:32:50;14.40;;;8.10;;
6388;SDS011;3227;42.654;23.360;2024-03-02T12:35:17;18.43;;;8.17;;
6388;SDS011;3227;42.654;23.360;2024-03-02T12:37:44;14.10;;;8.03;;
6388;SDS011;3227;42.654;23.360;2024-03-02T12:40:12;15.73;;;9.90;;
6388;SDS011;3227;42.654;23.360;2024-03-02T12:42:39;16.83;;;8.87;;
6388;SDS011;3227;42.654;23.360;2024-03-02T12:45:07;17.13;;;9.27;;
6388;SDS011;3227;42.654;23.360;2024-03-02T12:47:35;13.40;;;7.87;;
6388;SDS011;3227;42.654;23.360;2024-03-02T12:50:03;18.33;;;10.30;;
6388;SDS011;3227;42.654;23.360;2024-03-02T12:52:30;16.60;;;9.20;;
6388;SDS011;3227;42.654;23.360;2024-03-02T12:54:59;15.80;;;8.03;;
6388;SDS011;3227;42.654;23.360;2024-03-02T12:57:28;15.80;;;8.57;;
6388;SDS011;3227;42.654;23.360;2024-03-02T12:59:57;13.50;;;7.80;;
6388;SDS011;3227;42.654;23.360;2024-03-02T13:02:27;14.80;;;8.50;;
6388;SDS011;3227;42.654;23.360;2024-03-02T13:04:57;15.40;;;7.80;;
6388;SDS011;3227;42.654;23.360;2024-03-02T13:07:24;15.47;;;8.77;;
6388;SDS011;3227;42.654;23.360;2024-03-02T13:09:51;14.07;;;7.47;;
6388;SDS011;3227;42.654;23.360;2024-03-02T13:12:20;17.45;;;9.93;;
6388;SDS011;3227;42.654;23.360;2024-03-02T13:14:48;15.57;;;8.73;;
6388;SDS011;3227;42.654;23.360;2024-03-02T13:17:17;16.20;;;8.37;;
6388;SDS011;3227;42.654;23.360;2024-03-02T13:19:50;14.53;;;8.03;;
6388;SDS011;3227;42.654;23.360;2024-03-02T13:22:19;15.50;;;8.10;;
6388;SDS011;3227;42.654;23.360;2024-03-02T13:24:46;15.57;;;8.70;;
6388;SDS011;3227;42.654;23.360;2024-03-02T13:27:13;16.20;;;8.40;;
6388;SDS011;3227;42.654;23.360;2024-03-02T13:29:41;15.30;;;8.10;;
6388;SDS011;3227;42.654;23.360;2024-03-02T13:32:08;17.48;;;9.90;;
6388;SDS011;3227;42.654;23.360;2024-03-02T13:34:35;16.27;;;10.15;;
6388;SDS011;3227;42.654;23.360;2024-03-02T13:37:02;18.70;;;8.77;;
6388;SDS011;3227;42.654;23.360;2024-03-02T13:39:32;15.17;;;8.47;;
6388;SDS011;3227;42.654;23.360;2024-03-02T13:42:04;16.70;;;9.03;;
6388;SDS011;3227;42.654;23.360;2024-03-02T13:44:38;15.87;;;8.43;;
6388;SDS011;3227;42.654;23.360;2024-03-02T13:47:05;17.27;;;8.47;;
6388;SDS011;3227;42.654;23.360;2024-03-02T13:49:32;16.50;;;8.17;;
6388;SDS011;3227;42.654;23.360;2024-03-02T13:52:03;20.03;;;8.37;;
6388;SDS011;3227;42.654;23.360;2024-03-02T13:54:39;18.02;;;8.93;;
6388;SDS011;3227;42.654;23.360;2024-03-02T13:57:07;16.90;;;8.77;;
6388;SDS011;3227;42.654;23.360;2024-03-02T13:59:33;16.48;;;8.95;;
6388;SDS011;3227;42.654;23.360;2024-03-02T14:02:01;16.97;;;9.87;;
6388;SDS011;3227;42.654;23.360;2024-03-02T14:04:29;17.80;;;8.47;;
6388;SDS011;3227;42.654;23.360;2024-03-02T14:06:56;14.07;;;8.68;;
6388;SDS011;3227;42.654;23.360;2024-03-02T14:09:23;15.70;;;8.87;;
6388;SDS011;3227;42.654;23.360;2024-03-02T14:11:51;16.73;;;8.83;;
6388;SDS011;3227;42.654;23.360;2024-03-02T14:14:17;15.43;;;9.27;;
6388;SDS011;3227;42.654;23.360;2024-03-02T14:16:44;13.93;;;8.00;;
6388;SDS011;3227;42.654;23.360;2024-03-02T14:19:11;17.13;;;9.30;;
6388;SDS011;3227;42.654;23.360;2024-03-02T14:21:38;18.20;;;9.23;;
6388;SDS011;3227;42.654;23.360;2024-03-02T14:24:10;21.33;;;9.50;;
6388;SDS011;3227;42.654;23.360;2024-03-02T14:26:37;18.80;;;9.53;;
6388;SDS011;3227;42.654;23.360;2024-03-02T14:29:05;16.97;;;9.90;;
6388;SDS011;3227;42.654;23.360;2024-03-02T14:31:32;16.13;;;8.90;;
6388;SDS011;3227;42.654;23.360;2024-03-02T14:33:58;17.20;;;9.93;;
6388;SDS011;3227;42.654;23.360;2024-03-02T14:36:25;17.33;;;9.43;;
6388;SDS011;3227;42.654;23.360;2024-03-02T14:38:53;15.60;;;9.10;;
6388;SDS011;3227;42.654;23.360;2024-03-02T14:41:20;16.73;;;9.33;;
6388;SDS011;3227;42.654;23.360;2024-03-02T14:43:48;18.73;;;9.90;;
6388;SDS011;3227;42.654;23.360;2024-03-02T14:46:16;15.40;;;9.20;;
6388;SDS011;3227;42.654;23.360;2024-03-02T14:48:44;18.53;;;10.60;;
6388;SDS011;3227;42.654;23.360;2024-03-02T14:51:11;17.60;;;10.00;;